Time;durP1;ratioP1;P1;durP2;ratioP2;P2;SDS_P1;SDS_P2;PMS_P1;PMS_P2;Temp;Humidity;BMP_temperature;BMP_pressure;BME280_temperature;BME280_humidity;BME280_pressure;Samples;Min_cycle;Max_cycle;Signal;HPM_P1;HPM_P2
2023/04/21 00:02:42;;;;;;;26.77;19.38;;;8.40;99.90;;;;;;5094303;27;20078;-57
2023/04/21 00:05:09;;;;;;;28.10;19.58;;;8.20;99.90;;;;;;5093624;28;20166;-56
2023/04/21 00:07:39;;;;;;;28.65;20.05;;;8.20;99.90;;;;;;5093431;28;20410;-57
2023/04/21 00:10:09;;;;;;;28.02;19.42;;;9.90;99.90;;;;;;5092658;27;20492;-56
2023/04/21 00:12:35;;;;;;;29.55;21.05;;;8.20;99.90;;;;;;5074894;28;20591;-55
2023/04/21 00:15:02;;;;;;;31.05;21.20;;;8.20;99.90;;;;;;5093858;28;20043;-56
2023/04/21 00:17:27;;;;;;;27.25;16.58;;;8.20;99.90;;;;;;5093627;28;20031;-56
2023/04/21 00:19:53;;;;;;;28.48;21.67;;;8.20;99.90;;;;;;5092992;27;20090;-56
2023/04/21 00:22:20;;;;;;;29.98;20.45;;;8.30;99.90;;;;;;5094168;27;20408;-55
2023/04/21 00:24:46;;;;;;;25.90;19.60;;;8.10;99.90;;;;;;5075182;28;20073;-56
2023/04/21 00:27:12;;;;;;;30.35;19.23;;;8.00;99.90;;;;;;5077135;28;20032;-55
2023/04/21 00:29:39;;;;;;;28.92;17.77;;;8.50;99.90;;;;;;5095229;27;20453;-55
2023/04/21 00:32:08;;;;;;;24.58;17.70;;;8.10;99.90;;;;;;5093971;28;20082;-56
2023/04/21 00:34:34;;;;;;;28.10;19.83;;;7.90;99.90;;;;;;5075945;28;20442;-54
2023/04/21 00:37:00;;;;;;;29.55;17.73;;;7.80;99.90;;;;;;5094953;27;20852;-55
2023/04/21 00:39:26;;;;;;;27.10;18.85;;;7.80;99.90;;;;;;5094250;27;20044;-55
2023/04/21 00:41:52;;;;;;;24.90;17.98;;;7.90;99.90;;;;;;5093860;27;20043;-54
2023/04/21 00:44:17;;;;;;;28.85;19.00;;;7.80;99.90;;;;;;5093242;28;20039;-55
2023/04/21 00:46:43;;;;;;;26.80;16.85;;;7.70;99.90;;;;;;5093389;27;20031;-55
2023/04/21 00:49:09;;;;;;;28.17;16.38;;;9.80;99.90;;;;;;5094333;28;20043;-55
2023/04/21 00:51:36;;;;;;;25.17;18.08;;;7.60;99.90;;;;;;5094520;27;20059;-57
2023/04/21 00:54:04;;;;;;;23.67;17.02;;;9.20;99.90;;;;;;5073331;28;20050;-55
2023/04/21 00:56:31;;;;;;;28.85;16.10;;;7.70;99.90;;;;;;5092918;27;20125;-55
2023/04/21 00:58:58;;;;;;;22.60;15.30;;;8.40;99.90;;;;;;5094295;28;20054;-56
2023/04/21 01:01:24;;;;;;;26.67;18.25;;;7.70;99.90;;;;;;5076206;28;20694;-53
2023/04/21 01:03:51;;;;;;;22.90;16.10;;;7.70;99.90;;;;;;5091732;28;20259;-54
2023/04/21 01:06:18;;;;;;;27.40;14.68;;;7.60;99.90;;;;;;5093043;28;20287;-54
2023/04/21 01:08:47;;;;;;;29.38;16.80;;;7.60;99.90;;;;;;5073683;28;20028;-55
2023/04/21 01:11:13;;;;;;;24.00;16.02;;;7.80;99.90;;;;;;5092469;27;20071;-55
2023/04/21 01:13:39;;;;;;;25.17;17.58;;;7.70;99.90;;;;;;5092179;28;25232;-55
2023/04/21 01:16:06;;;;;;;24.13;15.70;;;8.10;99.90;;;;;;5093751;28;20144;-55
2023/04/21 01:18:33;;;;;;;24.70;16.73;;;7.70;99.90;;;;;;5091424;28;20403;-55
2023/04/21 01:21:00;;;;;;;26.25;17.48;;;7.60;99.90;;;;;;5092368;28;20039;-55
2023/04/21 01:23:25;;;;;;;25.45;16.85;;;7.60;99.90;;;;;;5092872;28;20058;-55
2023/04/21 01:25:51;;;;;;;24.52;17.33;;;8.70;99.90;;;;;;5093040;28;20488;-54
2023/04/21 01:28:24;;;;;;;23.02;14.93;;;7.40;99.90;;;;;;5094537;28;20040;-54
2023/04/21 01:30:51;;;;;;;25.85;16.65;;;8.80;99.90;;;;;;5075002;28;20452;-55
2023/04/21 01:33:17;;;;;;;26.27;17.77;;;7.40;99.90;;;;;;5091745;28;20031;-54
2023/04/21 01:35:44;;;;;;;18.30;11.43;;;6.10;99.90;;;;;;5092583;28;20035;-54
2023/04/21 01:38:10;;;;;;;28.80;17.38;;;7.40;99.90;;;;;;5074165;28;20071;-53
2023/04/21 01:40:37;;;;;;;26.13;17.33;;;8.00;99.90;;;;;;5093451;28;20553;-55
2023/04/21 01:43:02;;;;;;;26.17;16.67;;;8.10;99.90;;;;;;5092932;28;20136;-53
2023/04/21 01:45:29;;;;;;;26.52;17.98;;;8.60;99.90;;;;;;5093685;28;20445;-55
2023/04/21 01:47:55;;;;;;;21.08;14.75;;;7.20;99.90;;;;;;5094365;28;20056;-53
2023/04/21 01:50:21;;;;;;;29.55;18.50;;;7.20;99.90;;;;;;5094602;28;20398;-55
2023/04/21 01:52:47;;;;;;;25.85;16.98;;;7.20;99.90;;;;;;5094392;28;20043;-54
2023/04/21 01:55:13;;;;;;;25.10;15.88;;;7.30;99.90;;;;;;5093419;28;20062;-52
2023/04/21 01:57:39;;;;;;;23.27;14.90;;;7.20;99.90;;;;;;5093691;28;20048;-55
2023/04/21 02:00:06;;;;;;;19.10;13.52;;;7.20;99.90;;;;;;5096011;28;20118;-53
2023/04/21 02:02:32;;;;;;;19.73;11.45;;;7.20;99.90;;;;;;5094476;28;20501;-53
2023/04/21 02:04:58;;;;;;;24.73;15.10;;;7.50;99.90;;;;;;5093653;28;20114;-55
2023/04/21 02:07:23;;;;;;;23.60;15.35;;;7.80;99.90;;;;;;5092464;28;20100;-54
2023/04/21 02:09:49;;;;;;;24.92;15.68;;;9.00;99.90;;;;;;5094385;28;20627;-55
2023/04/21 02:12:15;;;;;;;25.52;15.65;;;7.30;99.90;;;;;;5093901;28;20043;-55
2023/04/21 02:14:40;;;;;;;24.67;14.00;;;7.80;99.90;;;;;;5092764;28;20127;-54
2023/04/21 02:17:06;;;;;;;20.05;12.73;;;8.00;99.90;;;;;;5092825;28;20163;-54
2023/04/21 02:19:32;;;;;;;20.33;13.70;;;7.70;99.90;;;;;;5092457;28;20040;-53
2023/04/21 02:21:58;;;;;;;29.35;15.32;;;7.60;99.90;;;;;;5094986;28;20039;-54
2023/04/21 02:24:24;;;;;;;25.25;16.10;;;7.60;99.90;;;;;;5093670;28;20377;-55
2023/04/21 02:26:50;;;;;;;19.65;12.23;;;7.70;99.90;;;;;;5093978;28;20126;-54
2023/04/21 02:29:16;;;;;;;23.60;13.27;;;7.60;99.90;;;;;;5094430;28;20512;-55
2023/04/21 02:31:41;;;;;;;22.77;15.18;;;7.80;99.90;;;;;;5093877;28;20081;-52
2023/04/21 02:34:07;;;;;;;19.67;13.40;;;9.00;99.90;;;;;;5097614;27;20472;-55
2023/04/21 02:36:33;;;;;;;20.80;13.30;;;7.70;99.90;;;;;;5096408;27;20482;-55
2023/04/21 02:38:59;;;;;;;20.33;14.18;;;7.60;99.90;;;;;;5096162;28;20450;-53
2023/04/21 02:41:24;;;;;;;22.70;15.15;;;7.80;99.90;;;;;;5098747;27;20078;-53
2023/04/21 02:43:50;;;;;;;18.05;13.07;;;7.70;99.90;;;;;;5097219;27;20375;-52
2023/04/21 02:46:16;;;;;;;22.20;13.60;;;7.80;99.90;;;;;;5096084;27;20048;-50
2023/04/21 02:48:41;;;;;;;19.30;10.68;;;8.20;99.90;;;;;;5097593;27;20281;-53
2023/04/21 02:51:12;;;;;;;23.50;13.07;;;8.20;99.90;;;;;;5077480;27;20579;-53
2023/04/21 02:53:39;;;;;;;24.58;15.02;;;7.90;99.90;;;;;;5097777;27;20062;-50
2023/04/21 02:56:07;;;;;;;28.45;14.13;;;7.70;99.90;;;;;;5097038;27;20459;-53
2023/04/21 02:58:34;;;;;;;16.55;10.85;;;7.80;99.90;;;;;;5099206;27;20119;-50
2023/04/21 03:01:01;;;;;;;23.85;14.57;;;7.60;99.90;;;;;;5098089;27;20108;-51
2023/04/21 03:03:27;;;;;;;21.38;12.45;;;7.60;99.90;;;;;;5097107;27;20134;-51
2023/04/21 03:06:00;;;;;;;19.90;13.75;;;7.90;99.90;;;;;;5096014;27;20264;-52
2023/04/21 03:08:26;;;;;;;21.92;14.68;;;7.60;99.90;;;;;;5096593;27;20047;-53
2023/04/21 03:10:52;;;;;;;24.58;15.25;;;7.40;99.90;;;;;;5096741;27;20043;-51
2023/04/21 03:13:18;;;;;;;20.42;13.57;;;8.70;99.90;;;;;;5097274;27;20106;-53
2023/04/21 03:15:44;;;;;;;21.48;14.40;;;7.40;99.90;;;;;;5097178;27;20384;-52
2023/04/21 03:18:10;;;;;;;18.40;11.65;;;7.50;99.90;;;;;;5097882;27;20051;-53
2023/04/21 03:20:36;;;;;;;24.58;12.73;;;7.80;99.90;;;;;;5096377;27;20062;-53
2023/04/21 03:23:01;;;;;;;24.10;14.52;;;7.90;99.90;;;;;;5096806;27;20039;-52
2023/04/21 03:25:27;;;;;;;26.27;11.68;;;8.10;99.90;;;;;;5096827;27;20058;-50
2023/04/21 03:27:53;;;;;;;18.90;10.35;;;7.80;99.90;;;;;;5096249;27;20519;-56
2023/04/21 03:30:19;;;;;;;22.58;12.05;;;8.50;99.90;;;;;;5097036;27;20055;-54
2023/04/21 03:32:45;;;;;;;20.88;13.65;;;9.40;99.90;;;;;;5096375;27;20047;-51
2023/04/21 03:35:11;;;;;;;21.52;13.68;;;7.90;99.90;;;;;;5076348;27;20039;-51
2023/04/21 03:37:37;;;;;;;20.30;12.65;;;7.80;99.90;;;;;;5096105;27;20071;-52
2023/04/21 03:40:06;;;;;;;18.02;10.27;;;7.70;99.90;;;;;;5096686;27;20039;-53
2023/04/21 03:42:32;;;;;;;24.02;13.55;;;7.90;99.90;;;;;;5096868;27;20353;-54
2023/04/21 03:45:02;;;;;;;19.38;12.73;;;7.90;99.90;;;;;;5075422;28;20096;-54
2023/04/21 03:47:28;;;;;;;21.83;13.27;;;8.10;99.90;;;;;;5077354;27;20142;-53
2023/04/21 03:49:54;;;;;;;17.85;12.25;;;8.10;99.90;;;;;;5094672;27;20139;-48
2023/04/21 03:52:19;;;;;;;18.88;9.88;;;8.00;99.90;;;;;;5095369;27;20118;-52
2023/04/21 03:54:45;;;;;;;14.70;9.07;;;8.10;99.90;;;;;;5094913;28;20044;-54
2023/04/21 03:57:11;;;;;;;21.38;11.75;;;7.90;99.90;;;;;;5095981;27;20042;-53
2023/04/21 03:59:36;;;;;;;18.63;13.48;;;8.20;99.90;;;;;;5095929;27;20036;-55
2023/04/21 04:02:02;;;;;;;18.67;12.68;;;8.00;99.90;;;;;;5076434;28;20036;-54
2023/04/21 04:04:28;;;;;;;19.10;11.90;;;8.30;99.90;;;;;;5094707;27;21187;-54
2023/04/21 04:06:54;;;;;;;16.88;12.40;;;8.20;99.90;;;;;;5096301;27;20077;-54
2023/04/21 04:09:19;;;;;;;21.08;13.70;;;8.00;99.90;;;;;;5095413;27;20050;-53
2023/04/21 04:11:45;;;;;;;22.10;11.90;;;9.70;99.90;;;;;;5077012;27;20184;-55
2023/04/21 04:14:11;;;;;;;18.88;11.38;;;7.90;99.90;;;;;;5094960;28;20043;-55
2023/04/21 04:16:37;;;;;;;26.13;14.35;;;7.80;99.90;;;;;;5096293;27;20093;-55
2023/04/21 04:19:03;;;;;;;17.85;11.30;;;7.70;99.90;;;;;;5094098;28;20047;-51
2023/04/21 04:21:30;;;;;;;22.30;12.60;;;7.90;99.90;;;;;;5095297;28;20074;-55
2023/04/21 04:23:55;;;;;;;19.58;12.43;;;7.80;99.90;;;;;;5095119;27;20802;-54
2023/04/21 04:26:23;;;;;;;18.92;14.00;;;9.90;99.90;;;;;;5077993;28;20040;-54
2023/04/21 04:28:49;;;;;;;22.27;13.63;;;8.50;99.90;;;;;;5094760;27;20134;-52
2023/04/21 04:31:16;;;;;;;20.92;13.75;;;7.60;99.90;;;;;;5095114;27;20077;-54
2023/04/21 04:33:42;;;;;;;17.77;12.52;;;8.50;99.90;;;;;;5093588;28;20040;-54
2023/04/21 04:36:09;;;;;;;19.85;12.05;;;7.60;99.90;;;;;;5095592;27;20035;-55
2023/04/21 04:38:36;;;;;;;18.77;11.38;;;7.60;99.90;;;;;;5095072;27;20156;-57
2023/04/21 04:41:03;;;;;;;18.75;12.43;;;7.70;99.90;;;;;;5058390;28;20039;-53
2023/04/21 04:43:32;;;;;;;26.10;12.80;;;7.70;99.90;;;;;;5093433;28;20043;-54
2023/04/21 04:45:58;;;;;;;21.83;13.63;;;7.70;99.90;;;;;;5074516;28;20817;-55
2023/04/21 04:48:25;;;;;;;21.17;12.57;;;7.70;99.90;;;;;;5092788;27;20083;-53
2023/04/21 04:50:50;;;;;;;20.38;13.15;;;7.70;99.90;;;;;;5093924;27;20185;-53
2023/04/21 04:53:16;;;;;;;19.13;12.45;;;7.70;99.90;;;;;;5074736;28;20035;-54
2023/04/21 04:55:42;;;;;;;18.15;12.15;;;7.70;99.90;;;;;;5093953;27;20075;-53
2023/04/21 04:58:08;;;;;;;21.77;12.55;;;9.20;99.90;;;;;;5093331;27;20051;-52
2023/04/21 05:00:33;;;;;;;22.52;11.80;;;8.00;99.90;;;;;;5095487;28;20043;-54
2023/04/21 05:02:59;;;;;;;21.85;12.85;;;8.00;99.90;;;;;;5092704;28;20063;-54
2023/04/21 05:05:25;;;;;;;22.20;11.95;;;8.00;99.90;;;;;;5092315;28;20055;-55
2023/04/21 05:07:51;;;;;;;18.98;11.07;;;8.10;99.90;;;;;;5093646;28;20142;-54
2023/04/21 05:10:17;;;;;;;18.92;12.52;;;8.10;99.90;;;;;;5094336;28;20047;-54
2023/04/21 05:12:43;;;;;;;18.08;12.05;;;8.00;99.90;;;;;;5094476;28;20054;-54
2023/04/21 05:15:10;;;;;;;20.65;12.27;;;8.20;99.90;;;;;;5092840;27;20044;-53
2023/04/21 05:17:35;;;;;;;17.02;11.10;;;8.10;99.90;;;;;;5093036;28;20046;-54
2023/04/21 05:20:06;;;;;;;15.85;10.95;;;8.30;99.90;;;;;;5094016;28;20048;-54
2023/04/21 05:22:39;;;;;;;22.97;10.53;;;8.00;99.90;;;;;;5076772;28;20036;-54
2023/04/21 05:25:05;;;;;;;21.23;11.70;;;8.30;99.90;;;;;;5092881;28;20039;-53
2023/04/21 05:27:32;;;;;;;19.58;10.80;;;8.30;99.90;;;;;;5094722;28;20132;-54
2023/04/21 05:29:59;;;;;;;17.50;10.57;;;8.40;99.90;;;;;;5095304;28;20071;-53
2023/04/21 05:32:25;;;;;;;17.20;10.60;;;8.80;99.90;;;;;;5092729;28;20039;-53
2023/04/21 05:34:51;;;;;;;15.98;10.27;;;8.80;99.90;;;;;;5093033;28;20411;-54
2023/04/21 05:37:16;;;;;;;20.40;10.13;;;9.10;99.90;;;;;;5092172;28;20712;-55
2023/04/21 05:39:42;;;;;;;20.30;10.20;;;9.50;99.90;;;;;;5093643;28;20044;-53
2023/04/21 05:42:11;;;;;;;19.33;9.70;;;9.60;99.90;;;;;;5073715;28;20039;-54
2023/04/21 05:44:37;;;;;;;15.85;10.00;;;10.00;99.90;;;;;;5090515;28;20066;-54
2023/04/21 05:47:05;;;;;;;14.57;9.68;;;10.20;99.90;;;;;;5090179;28;20044;-53
2023/04/21 05:49:31;;;;;;;12.63;8.90;;;10.60;99.90;;;;;;5092692;28;20592;-55
2023/04/21 05:51:57;;;;;;;16.67;9.57;;;10.70;99.90;;;;;;5074509;28;20135;-55
2023/04/21 05:54:22;;;;;;;17.65;8.60;;;10.70;99.90;;;;;;5092287;28;20040;-55
2023/04/21 05:56:48;;;;;;;17.00;8.40;;;11.00;99.90;;;;;;5092566;28;20036;-55
2023/04/21 05:59:14;;;;;;;16.20;9.45;;;11.30;99.90;;;;;;5075036;28;20032;-54
2023/04/21 06:01:40;;;;;;;19.80;8.77;;;11.50;99.90;;;;;;5094882;28;20071;-54
2023/04/21 06:04:06;;;;;;;14.95;8.32;;;12.10;99.90;;;;;;5093499;28;20052;-55
2023/04/21 06:06:32;;;;;;;16.58;9.05;;;12.40;99.90;;;;;;5094148;28;20534;-55
2023/04/21 06:08:58;;;;;;;20.67;8.38;;;12.90;99.90;;;;;;5097172;27;20999;-55
2023/04/21 06:11:23;;;;;;;17.27;7.97;;;12.70;99.90;;;;;;5097220;27;20062;-55
2023/04/21 06:13:51;;;;;;;13.35;8.23;;;13.30;99.90;;;;;;5096012;27;20047;-55
2023/04/21 06:16:17;;;;;;;14.90;7.47;;;12.90;99.90;;;;;;5077994;28;20503;-54
2023/04/21 06:18:43;;;;;;;12.88;7.80;;;13.60;99.90;;;;;;5096384;27;20050;-54
2023/04/21 06:21:09;;;;;;;16.25;9.30;;;14.10;99.90;;;;;;5096175;27;20116;-53
2023/04/21 06:23:35;;;;;;;15.77;7.63;;;14.40;99.90;;;;;;5096213;27;20043;-55
2023/04/21 06:26:03;;;;;;;15.23;7.32;;;14.50;99.90;;;;;;5097590;27;20123;-54
2023/04/21 06:28:30;;;;;;;15.48;7.32;;;14.90;99.90;;;;;;5075943;28;20334;-55
2023/04/21 06:30:56;;;;;;;15.13;7.95;;;15.30;99.90;;;;;;5098287;27;20047;-53
2023/04/21 06:33:22;;;;;;;15.88;7.60;;;15.60;99.90;;;;;;5079094;28;20654;-54
2023/04/21 06:35:48;;;;;;;10.50;7.18;;;15.70;99.90;;;;;;5095815;27;20038;-55
2023/04/21 06:38:14;;;;;;;18.05;8.00;;;15.90;99.90;;;;;;5096253;27;20642;-55
2023/04/21 06:40:39;;;;;;;14.10;7.43;;;15.80;99.90;;;;;;5097064;28;20177;-55
2023/04/21 06:43:05;;;;;;;21.15;8.15;;;16.00;99.90;;;;;;5096862;27;20290;-55
2023/04/21 06:45:31;;;;;;;13.10;7.60;;;16.00;99.90;;;;;;5095525;28;20147;-55
2023/04/21 06:47:57;;;;;;;12.80;6.70;;;16.60;99.90;;;;;;5095937;27;20119;-56
2023/04/21 06:50:22;;;;;;;11.68;6.70;;;16.90;99.90;;;;;;5096211;27;20043;-55
2023/04/21 06:52:48;;;;;;;16.55;7.40;;;17.30;99.90;;;;;;5095811;27;20555;-55
2023/04/21 06:55:14;;;;;;;13.90;7.30;;;17.70;99.90;;;;;;5096650;27;20035;-55
2023/04/21 06:57:40;;;;;;;14.90;7.82;;;17.80;99.90;;;;;;5096846;27;20154;-55
2023/04/21 07:00:06;;;;;;;16.27;6.95;;;18.20;99.90;;;;;;5099295;27;20134;-53
2023/04/21 07:02:32;;;;;;;15.25;6.82;;;18.30;99.90;;;;;;5077221;28;20039;-54
2023/04/21 07:04:58;;;;;;;15.25;7.32;;;18.70;99.90;;;;;;5095859;27;20081;-56
2023/04/21 07:07:23;;;;;;;12.77;6.95;;;19.10;99.90;;;;;;5077551;27;20036;-55
2023/04/21 07:09:49;;;;;;;12.10;6.85;;;19.20;99.90;;;;;;5097115;27;20143;-56
2023/04/21 07:12:15;;;;;;;13.88;6.65;;;19.10;99.90;;;;;;5096033;28;20043;-56
2023/04/21 07:14:41;;;;;;;11.75;7.03;;;18.50;99.90;;;;;;5095954;28;20551;-54
2023/04/21 07:17:06;;;;;;;14.30;7.10;;;18.60;99.90;;;;;;5095215;27;20043;-55
2023/04/21 07:19:32;;;;;;;13.02;7.63;;;18.10;99.90;;;;;;5095206;28;20044;-55
2023/04/21 07:21:58;;;;;;;13.13;6.65;;;18.10;99.90;;;;;;5095593;27;20118;-55
2023/04/21 07:24:23;;;;;;;12.52;7.32;;;18.10;99.90;;;;;;5095826;27;20035;-55
2023/04/21 07:26:49;;;;;;;15.43;7.38;;;18.40;99.90;;;;;;5095863;27;20096;-55
2023/04/21 07:29:15;;;;;;;16.92;7.28;;;18.60;99.90;;;;;;5096626;27;20085;-56
2023/04/21 07:31:41;;;;;;;12.27;6.75;;;18.10;99.90;;;;;;5097188;27;20075;-54
2023/04/21 07:34:07;;;;;;;13.35;7.05;;;18.00;99.90;;;;;;5095672;27;20612;-55
2023/04/21 07:36:32;;;;;;;13.43;6.53;;;18.20;99.90;;;;;;5095206;28;20325;-55
2023/04/21 07:38:58;;;;;;;14.63;6.97;;;18.10;99.90;;;;;;5095575;28;20511;-54
2023/04/21 07:41:24;;;;;;;17.70;7.10;;;17.70;99.90;;;;;;5076234;28;20128;-54
2023/04/21 07:43:50;;;;;;;11.93;7.03;;;17.40;99.90;;;;;;5094853;27;20551;-56
2023/04/21 07:46:15;;;;;;;15.93;7.50;;;17.10;99.90;;;;;;5094119;27;20123;-55
2023/04/21 07:48:41;;;;;;;15.13;7.13;;;17.20;99.90;;;;;;5095681;27;20043;-54
2023/04/21 07:51:07;;;;;;;13.07;7.68;;;17.00;99.90;;;;;;5077286;28;20046;-55
2023/04/21 07:53:33;;;;;;;18.67;7.90;;;17.00;99.90;;;;;;5094518;27;20051;-53
2023/04/21 07:55:59;;;;;;;12.73;7.30;;;16.80;99.90;;;;;;5094534;27;20116;-56
2023/04/21 07:58:25;;;;;;;15.65;7.70;;;16.60;99.90;;;;;;5095855;27;20495;-52
2023/04/21 08:00:51;;;;;;;14.63;7.32;;;16.40;99.90;;;;;;5096345;27;20051;-54
2023/04/21 08:03:16;;;;;;;12.40;7.05;;;16.40;99.90;;;;;;5095271;27;20135;-54
2023/04/21 08:05:42;;;;;;;17.33;9.05;;;16.50;99.90;;;;;;5093719;27;20102;-53
2023/04/21 08:08:08;;;;;;;15.38;8.00;;;16.40;99.90;;;;;;5078071;27;20074;-54
2023/04/21 08:10:33;;;;;;;14.88;7.60;;;16.10;99.90;;;;;;5077256;27;20038;-53
2023/04/21 08:12:59;;;;;;;22.13;7.97;;;15.70;99.90;;;;;;5094505;27;20104;-54
2023/04/21 08:15:25;;;;;;;14.15;8.05;;;15.80;99.90;;;;;;5095554;27;20050;-55
2023/04/21 08:17:51;;;;;;;19.35;7.82;;;16.00;99.90;;;;;;5096903;28;20455;-53
2023/04/21 08:20:17;;;;;;;18.15;8.50;;;16.00;99.90;;;;;;5095098;27;20523;-52
2023/04/21 08:22:42;;;;;;;15.73;7.47;;;16.00;99.90;;;;;;5095294;27;20031;-52
2023/04/21 08:25:08;;;;;;;15.05;7.85;;;16.50;99.90;;;;;;5094530;27;20078;-53
2023/04/21 08:27:38;;;;;;;16.17;7.18;;;17.00;99.90;;;;;;5095390;27;20043;-54
2023/04/21 08:30:06;;;;;;;12.68;6.93;;;17.30;99.90;;;;;;5097191;27;20054;-53
2023/04/21 08:32:31;;;;;;;14.40;7.80;;;17.40;99.90;;;;;;5096894;27;20645;-54
2023/04/21 08:34:57;;;;;;;18.88;7.82;;;17.10;99.90;;;;;;5094115;28;20500;-53
2023/04/21 08:37:23;;;;;;;19.67;8.30;;;16.80;99.90;;;;;;5094741;28;20151;-53
2023/04/21 08:39:49;;;;;;;14.60;7.18;;;16.70;99.90;;;;;;5076576;28;20588;-53
2023/04/21 08:42:17;;;;;;;13.25;7.97;;;16.40;99.90;;;;;;5096444;28;20122;-53
2023/04/21 08:44:42;;;;;;;18.90;7.63;;;16.60;99.90;;;;;;5095944;27;20143;-53
2023/04/21 08:47:13;;;;;;;13.65;6.85;;;16.60;99.90;;;;;;5096028;27;20138;-54
2023/04/21 08:49:41;;;;;;;14.38;7.65;;;16.80;99.90;;;;;;5095086;28;20040;-53
2023/04/21 08:52:07;;;;;;;15.93;9.07;;;16.90;99.90;;;;;;5095757;27;20612;-51
2023/04/21 08:54:37;;;;;;;14.35;7.45;;;17.00;99.90;;;;;;5094977;27;20043;-54
2023/04/21 08:57:03;;;;;;;15.55;7.38;;;16.60;99.90;;;;;;5094269;27;20087;-52
2023/04/21 08:59:30;;;;;;;17.65;7.55;;;17.00;99.90;;;;;;5095400;28;20467;-54
2023/04/21 09:02:08;;;;;;;17.70;8.90;;;17.00;99.90;;;;;;5095508;28;20032;-52
2023/04/21 09:04:37;;;;;;;14.60;8.00;;;16.80;99.90;;;;;;5093818;28;20411;-56
2023/04/21 09:07:03;;;;;;;15.93;7.45;;;16.90;99.90;;;;;;5094078;28;20139;-51
2023/04/21 09:09:29;;;;;;;13.65;7.93;;;17.40;99.90;;;;;;5094828;27;20048;-53
2023/04/21 09:11:57;;;;;;;16.55;7.05;;;17.10;99.90;;;;;;5094351;28;20055;-50
2023/04/21 09:14:32;;;;;;;15.70;7.10;;;17.00;99.90;;;;;;5093866;28;20052;-51
2023/04/21 09:17:02;;;;;;;14.13;7.65;;;16.80;99.90;;;;;;5093416;27;20041;-53
2023/04/21 09:19:29;;;;;;;14.60;7.25;;;16.50;99.90;;;;;;5074922;28;20036;-49
2023/04/21 09:21:56;;;;;;;18.38;7.45;;;16.40;99.90;;;;;;5093721;28;20043;-54
2023/04/21 09:24:22;;;;;;;16.35;6.88;;;16.30;99.90;;;;;;5093590;28;20043;-53
2023/04/21 09:26:52;;;;;;;14.52;7.25;;;16.30;99.90;;;;;;5092422;28;20496;-48
2023/04/21 09:29:21;;;;;;;17.80;7.93;;;16.30;99.90;;;;;;5092268;28;20150;-54
2023/04/21 09:31:48;;;;;;;16.95;7.47;;;16.30;99.90;;;;;;5093762;28;20487;-51
2023/04/21 09:34:24;;;;;;;14.52;7.57;;;16.40;99.90;;;;;;5092785;28;20437;-53
2023/04/21 09:37:00;;;;;;;15.10;7.70;;;16.40;99.90;;;;;;5093376;28;20036;-54
2023/04/21 09:39:32;;;;;;;12.60;6.93;;;16.30;99.90;;;;;;5093858;28;23011;-50
2023/04/21 09:41:58;;;;;;;18.40;7.63;;;16.50;99.90;;;;;;5095207;27;20046;-52
2023/04/21 09:44:24;;;;;;;14.63;6.72;;;16.60;99.90;;;;;;5097969;27;20043;-53
2023/04/21 09:46:56;;;;;;;16.95;7.63;;;16.50;99.90;;;;;;5079651;27;20356;-52
2023/04/21 09:49:23;;;;;;;15.43;6.97;;;16.50;99.90;;;;;;5098665;27;20079;-53
2023/04/21 09:51:49;;;;;;;18.58;6.78;;;16.70;99.90;;;;;;5079776;27;20526;-48
2023/04/21 09:54:17;;;;;;;15.10;7.05;;;16.40;99.90;;;;;;5098146;28;20043;-52
2023/04/21 09:56:46;;;;;;;15.73;7.53;;;16.00;99.90;;;;;;5098404;28;20135;-52
2023/04/21 09:59:37;;;;;;;11.52;6.30;;;16.30;99.90;;;;;;5097818;28;20050;-54
2023/04/21 10:02:08;;;;;;;11.15;6.38;;;16.40;99.90;;;;;;5081732;27;20039;-52
2023/04/21 10:04:35;;;;;;;14.57;7.80;;;16.50;99.90;;;;;;5097868;27;20095;-53
2023/04/21 10:07:02;;;;;;;15.77;8.20;;;16.60;99.90;;;;;;5097967;27;20403;-54
2023/04/21 10:09:39;;;;;;;14.98;7.57;;;17.00;99.90;;;;;;5098657;27;20143;-51
2023/04/21 10:12:05;;;;;;;16.25;7.60;;;17.30;99.90;;;;;;5098807;27;20050;-53
2023/04/21 10:14:31;;;;;;;16.25;6.90;;;17.50;99.90;;;;;;5098725;27;20623;-53
2023/04/21 10:17:03;;;;;;;18.60;7.22;;;17.70;99.90;;;;;;5097785;27;20077;-53
2023/04/21 10:19:34;;;;;;;17.02;8.15;;;17.20;99.90;;;;;;5097882;27;20215;-53
2023/04/21 10:22:00;;;;;;;18.42;7.97;;;17.10;99.90;;;;;;5079081;28;20070;-54
2023/04/21 10:24:29;;;;;;;14.32;8.23;;;17.10;99.90;;;;;;5099011;27;20043;-52
2023/04/21 10:26:58;;;;;;;17.38;7.80;;;17.10;99.90;;;;;;5097274;27;20043;-51
2023/04/21 10:29:33;;;;;;;14.77;7.88;;;17.10;99.90;;;;;;5097613;27;20047;-53
2023/04/21 10:31:59;;;;;;;15.38;7.95;;;17.40;99.90;;;;;;5099695;27;20035;-51
2023/04/21 10:34:25;;;;;;;14.00;6.70;;;17.60;99.90;;;;;;5097393;27;20136;-53
2023/04/21 10:37:09;;;;;;;20.02;7.05;;;17.70;99.90;;;;;;5096863;27;20130;-50
2023/04/21 10:39:44;;;;;;;17.85;7.70;;;17.50;99.90;;;;;;5097141;27;20476;-51
2023/04/21 10:42:12;;;;;;;14.27;7.05;;;17.30;99.90;;;;;;5097528;27;20083;-54
2023/04/21 10:45:05;;;;;;;18.42;8.02;;;17.10;99.90;;;;;;5096564;27;20042;-51
2023/04/21 10:47:47;;;;;;;14.40;8.15;;;17.40;99.90;;;;;;5085864;27;20431;-54
2023/04/21 10:50:19;;;;;;;15.68;7.57;;;17.50;99.90;;;;;;5097320;27;20111;-54
2023/04/21 10:53:06;;;;;;;16.58;8.45;;;17.80;99.90;;;;;;5098648;27;20100;-54
2023/04/21 10:55:32;;;;;;;19.85;7.70;;;17.90;99.90;;;;;;5097379;27;20035;-53
2023/04/21 10:58:02;;;;;;;15.00;7.90;;;18.30;99.90;;;;;;5096871;27;20058;-54
2023/04/21 11:00:28;;;;;;;12.68;6.93;;;18.40;99.90;;;;;;5097793;27;20054;-53
2023/04/21 11:03:02;;;;;;;15.80;7.15;;;18.60;99.90;;;;;;5097626;27;20051;-53
2023/04/21 11:05:30;;;;;;;12.35;7.30;;;19.00;99.90;;;;;;5097440;27;20043;-52
2023/04/21 11:08:10;;;;;;;12.93;7.30;;;19.00;99.90;;;;;;5096037;27;20391;-51
2023/04/21 11:10:43;;;;;;;14.90;6.70;;;19.20;99.90;;;;;;5097321;27;20050;-52
2023/04/21 11:13:10;;;;;;;14.10;6.65;;;19.10;99.90;;;;;;5095995;28;20453;-52
2023/04/21 11:15:36;;;;;;;15.85;6.85;;;19.30;99.90;;;;;;5096479;27;20063;-52
2023/04/21 11:18:02;;;;;;;14.38;7.05;;;19.30;99.90;;;;;;5098512;27;20795;-52
2023/04/21 11:20:28;;;;;;;13.43;6.82;;;19.50;99.90;;;;;;5096697;27;20040;-53
2023/04/21 11:22:55;;;;;;;12.30;6.05;;;19.60;99.90;;;;;;5096715;27;20048;-53
2023/04/21 11:25:21;;;;;;;11.63;6.25;;;19.20;99.90;;;;;;5097168;27;20043;-52
2023/04/21 11:27:54;;;;;;;13.50;6.82;;;19.50;99.90;;;;;;5097240;27;20377;-52
2023/04/21 11:30:32;;;;;;;13.40;6.32;;;19.60;99.90;;;;;;5097769;27;20781;-51
2023/04/21 11:32:58;;;;;;;16.80;6.80;;;19.90;99.90;;;;;;5097636;27;20122;-54
2023/04/21 11:35:24;;;;;;;12.73;6.32;;;19.70;99.90;;;;;;5094637;27;20035;-49
2023/04/21 11:37:53;;;;;;;8.80;5.78;;;19.70;99.90;;;;;;5094963;27;24136;-53
2023/04/21 11:40:19;;;;;;;14.50;6.10;;;19.40;99.90;;;;;;5059734;28;20104;-52
2023/04/21 11:42:45;;;;;;;14.00;6.93;;;19.60;99.90;;;;;;5095710;28;20043;-52
2023/04/21 11:45:18;;;;;;;9.38;5.50;;;19.60;99.90;;;;;;5094288;27;20485;-51
2023/04/21 11:47:44;;;;;;;16.58;5.90;;;19.50;99.90;;;;;;5093473;27;20039;-53
2023/04/21 11:50:10;;;;;;;12.32;6.07;;;19.10;99.90;;;;;;5094061;27;20508;-51
2023/04/21 11:52:36;;;;;;;9.90;5.53;;;18.90;99.90;;;;;;5096509;27;20083;-53
2023/04/21 11:55:03;;;;;;;14.07;5.80;;;18.70;99.90;;;;;;5094691;27;20043;-49
2023/04/21 11:57:31;;;;;;;11.60;5.60;;;18.80;99.90;;;;;;5094042;27;20073;-46
2023/04/21 12:00:01;;;;;;;9.48;5.05;;;18.70;99.90;;;;;;5095026;27;20060;-50
2023/04/21 12:02:29;;;;;;;11.98;5.25;;;18.80;99.90;;;;;;5095640;27;20049;-46
2023/04/21 12:05:05;;;;;;;8.90;4.90;;;18.80;99.90;;;;;;5092758;27;20138;-48
2023/04/21 12:07:36;;;;;;;12.02;4.72;;;18.70;99.90;;;;;;5095611;27;20059;-51
2023/04/21 12:10:10;;;;;;;11.55;4.22;;;18.80;99.90;;;;;;5076008;28;20435;-46
2023/04/21 12:12:39;;;;;;;6.68;3.30;;;19.10;99.90;;;;;;5092775;27;20063;-48
2023/04/21 12:15:06;;;;;;;11.90;3.97;;;19.30;99.90;;;;;;5075215;28;20118;-46
2023/04/21 12:17:49;;;;;;;11.07;3.40;;;19.40;99.90;;;;;;5092989;27;20092;-47
2023/04/21 12:20:20;;;;;;;10.65;3.17;;;19.20;99.90;;;;;;5092633;27;20073;-47
2023/04/21 12:22:46;;;;;;;11.85;3.50;;;19.00;99.90;;;;;;5093018;27;20042;-46
2023/04/21 12:25:12;;;;;;;12.05;3.90;;;19.00;99.90;;;;;;5072310;28;20295;-50
2023/04/21 12:27:50;;;;;;;13.77;3.20;;;17.20;99.90;;;;;;5091693;27;20395;-58
2023/04/21 12:30:17;;;;;;;12.15;3.72;;;19.20;99.90;;;;;;5091855;28;20075;-57
2023/04/21 12:32:43;;;;;;;13.25;3.65;;;19.00;99.90;;;;;;5095726;27;20084;-57
2023/04/21 12:35:09;;;;;;;12.00;3.20;;;19.20;99.90;;;;;;5076301;28;20027;-58
2023/04/21 12:37:35;;;;;;;11.05;3.28;;;19.40;99.90;;;;;;5095053;27;20154;-58
2023/04/21 12:40:02;;;;;;;14.30;3.40;;;19.50;99.90;;;;;;5093677;28;20472;-57